Time;durP1;ratioP1;P1;durP2;ratioP2;P2;SDS_P1;SDS_P2;PMS_P1;PMS_P2;Temp;Humidity;BMP_temperature;BMP_pressure;BME280_temperature;BME280_humidity;BME280_pressure;Samples;Min_cycle;Max_cycle;Signal;HPM_P1;HPM_P2
2022/04/07 00:04:10;;;;;;;29.60;16.80;;;;;;;9.35;72.12;97031.11;217732;1281;24725;-70
2022/04/07 00:09:13;;;;;;;31.00;16.30;;;;;;;9.38;72.01;97026.48;218014;1279;24701;-69
2022/04/07 00:14:15;;;;;;;30.30;15.70;;;;;;;9.43;72.04;97021.56;218290;1279;24246;-69
2022/04/07 00:19:17;;;;;;;26.10;15.10;;;;;;;9.49;72.01;97018.19;217953;1281;22545;-69
2022/04/07 00:24:21;;;;;;;27.00;15.70;;;;;;;9.55;71.87;97016.83;218154;1279;22649;-68
2022/04/07 00:29:23;;;;;;;25.40;15.00;;;;;;;9.57;71.83;97013.17;218178;1279;22670;-69
2022/04/07 00:34:30;;;;;;;24.10;14.10;;;;;;;9.58;71.78;97002.98;218227;1279;22617;-68
2022/04/07 00:39:32;;;;;;;24.70;13.90;;;;;;;9.59;71.65;97000.55;218354;1279;22608;-69
2022/04/07 00:44:34;;;;;;;22.50;13.60;;;;;;;9.57;71.54;97007.42;218031;1279;22547;-69
2022/04/07 00:49:36;;;;;;;22.60;14.20;;;;;;;9.53;71.39;97004.58;218313;1279;24260;-69
2022/04/07 00:54:42;;;;;;;23.30;13.90;;;;;;;9.51;71.42;97003.92;218036;1279;24254;-69
2022/04/07 00:59:45;;;;;;;25.10;14.40;;;;;;;9.54;71.49;97006.09;218384;1279;25216;-69
2022/04/07 01:04:48;;;;;;;23.50;13.40;;;;;;;9.56;71.48;97003.21;218406;1279;25427;-69
2022/04/07 01:09:52;;;;;;;23.70;13.40;;;;;;;9.59;71.52;96998.11;218147;1279;25242;-68
2022/04/07 01:14:59;;;;;;;24.50;14.00;;;;;;;9.60;71.30;96996.45;218244;1279;22556;-69
2022/04/07 01:20:08;;;;;;;25.00;15.50;;;;;;;9.56;71.15;96992.88;218458;1279;24144;-68
2022/04/07 01:25:14;;;;;;;26.00;14.80;;;;;;;9.56;71.35;96996.02;217960;1279;25317;-67
2022/04/07 01:30:17;;;;;;;23.10;13.20;;;;;;;9.58;71.39;96999.93;218205;1279;25250;-69
2022/04/07 01:35:22;;;;;;;24.70;14.50;;;;;;;9.54;71.19;97004.42;218595;1279;22710;-69
2022/04/07 01:40:28;;;;;;;25.40;14.40;;;;;;;9.44;71.09;97003.20;218490;1279;23522;-69
2022/04/07 01:45:33;;;;;;;24.90;15.30;;;;;;;9.30;71.11;97005.51;218159;1279;26443;-69
2022/04/07 01:50:38;;;;;;;26.10;16.40;;;;;;;9.16;71.25;97001.74;218389;1279;22712;-69
2022/04/07 01:55:41;;;;;;;25.10;15.00;;;;;;;9.00;71.37;97001.54;218578;1279;22564;-68
2022/04/07 02:00:45;;;;;;;26.00;14.20;;;;;;;8.86;71.21;96993.92;217834;1279;24584;-68
2022/04/07 02:05:50;;;;;;;27.20;14.90;;;;;;;8.73;71.42;96989.76;218318;1279;24382;-68
2022/04/07 02:10:52;;;;;;;25.60;14.00;;;;;;;8.62;71.46;96985.22;218226;1279;24651;-69
2022/04/07 02:15:54;;;;;;;20.60;12.30;;;;;;;8.52;71.69;96982.29;217897;1279;22793;-69
2022/04/07 02:20:57;;;;;;;25.60;14.30;;;;;;;8.44;71.69;96982.77;218328;1279;22602;-68
2022/04/07 02:25:59;;;;;;;21.40;12.30;;;;;;;8.35;71.99;96985.77;217898;1281;22557;-69
2022/04/07 02:31:01;;;;;;;19.60;12.70;;;;;;;8.26;71.96;96980.34;217911;1279;22807;-68
2022/04/07 02:36:05;;;;;;;22.60;12.90;;;;;;;8.20;72.31;96978.10;218377;1279;22687;-69
2022/04/07 02:41:10;;;;;;;22.20;12.60;;;;;;;8.16;72.31;96974.35;218380;1279;26410;-69
2022/04/07 02:46:12;;;;;;;22.40;13.90;;;;;;;8.13;72.23;96968.42;218287;1279;22723;-69
2022/04/07 02:51:15;;;;;;;19.10;12.30;;;;;;;8.12;72.31;96960.84;218286;1279;25328;-69
2022/04/07 02:56:17;;;;;;;17.80;11.50;;;;;;;8.13;72.45;96966.05;218225;1279;25594;-68
2022/04/07 03:01:21;;;;;;;12.90;8.70;;;;;;;8.15;72.45;96959.45;218229;1279;22482;-68
2022/04/07 03:06:24;;;;;;;16.60;11.10;;;;;;;8.20;72.35;96956.91;218128;1279;24574;-69
2022/04/07 03:11:27;;;;;;;13.40;8.50;;;;;;;8.25;72.29;96956.95;218409;1279;24256;-69
2022/04/07 03:16:29;;;;;;;14.60;7.90;;;;;;;8.32;72.36;96958.02;218397;1279;24259;-69
2022/04/07 03:21:30;;;;;;;13.90;8.00;;;;;;;8.42;72.41;96953.54;217915;1281;22563;-69
2022/04/07 03:26:36;;;;;;;11.40;7.90;;;;;;;8.51;72.16;96945.72;218145;1281;22569;-69
2022/04/07 03:31:45;;;;;;;10.10;7.00;;;;;;;8.59;72.02;96938.71;218603;1279;24226;-69
2022/04/07 03:36:48;;;;;;;12.60;6.80;;;;;;;8.67;72.06;96940.70;218480;1280;22571;-69
2022/04/07 03:41:51;;;;;;;10.30;5.80;;;;;;;8.73;71.94;96933.33;218363;1279;22649;-69
2022/04/07 03:46:58;;;;;;;10.70;6.00;;;;;;;8.87;71.76;96932.63;218521;1279;24442;-69
2022/04/07 03:52:01;;;;;;;9.90;5.70;;;;;;;8.97;71.58;96918.98;218086;1279;23095;-69
2022/04/07 03:57:03;;;;;;;7.50;5.40;;;;;;;9.02;71.25;96912.45;218391;1279;22608;-68
2022/04/07 04:02:06;;;;;;;9.10;5.70;;;;;;;9.04;71.17;96911.55;218438;1279;25331;-69
2022/04/07 04:07:12;;;;;;;9.00;4.80;;;;;;;9.06;70.86;96910.11;218199;1279;22962;-70
2022/04/07 04:12:14;;;;;;;7.10;4.00;;;;;;;9.08;70.85;96916.38;218534;1279;25486;-69
2022/04/07 04:17:20;;;;;;;6.60;3.90;;;;;;;9.14;70.77;96919.39;218468;1279;22558;-68
2022/04/07 04:22:27;;;;;;;5.60;3.70;;;;;;;9.19;70.61;96911.17;218359;1279;22626;-69
2022/04/07 04:27:29;;;;;;;6.00;3.80;;;;;;;9.25;70.42;96919.27;218062;1281;24032;-69
2022/04/07 04:32:31;;;;;;;6.30;3.60;;;;;;;9.33;70.25;96919.55;218503;1279;25456;-69
2022/04/07 04:37:33;;;;;;;5.20;4.10;;;;;;;9.35;69.99;96916.44;218247;1279;22599;-69
2022/04/07 04:42:36;;;;;;;9.40;5.70;;;;;;;9.34;69.77;96911.98;218332;1279;25384;-69
2022/04/07 04:47:41;;;;;;;11.50;6.30;;;;;;;9.32;69.73;96915.24;218186;1279;22753;-68
2022/04/07 04:52:46;;;;;;;11.60;6.70;;;;;;;9.31;69.97;96918.29;218172;1279;22606;-69
2022/04/07 04:57:49;;;;;;;10.20;6.20;;;;;;;9.36;70.02;96914.42;218148;1280;22822;-69
2022/04/07 05:02:54;;;;;;;10.40;6.20;;;;;;;9.41;69.86;96916.83;218358;1279;22885;-69
2022/04/07 05:07:57;;;;;;;8.80;5.90;;;;;;;9.47;69.86;96923.44;218431;1280;22570;-69
2022/04/07 05:13:00;;;;;;;7.30;5.10;;;;;;;9.59;69.85;96924.34;218425;1279;22554;-69
2022/04/07 05:18:02;;;;;;;7.00;4.80;;;;;;;9.78;69.66;96923.40;218258;1279;22688;-69
2022/04/07 05:23:05;;;;;;;7.30;4.60;;;;;;;10.03;69.50;96918.77;218233;1280;22556;-68
2022/04/07 05:28:07;;;;;;;5.20;4.30;;;;;;;10.30;69.03;96919.89;218095;1279;24533;-70
2022/04/07 05:33:11;;;;;;;6.70;4.60;;;;;;;10.55;68.62;96914.01;218208;1280;24268;-69
2022/04/07 05:38:13;;;;;;;7.90;4.80;;;;;;;10.74;67.77;96912.63;218263;1279;25778;-69
2022/04/07 05:43:15;;;;;;;5.90;4.20;;;;;;;10.91;67.22;96917.83;217702;1281;23380;-69
2022/04/07 05:48:17;;;;;;;4.90;3.50;;;;;;;11.07;66.46;96920.42;217808;1281;22552;-68
2022/04/07 05:53:20;;;;;;;4.90;3.60;;;;;;;11.13;65.52;96922.15;218660;1280;22713;-68
2022/04/07 05:58:22;;;;;;;6.90;4.10;;;;;;;11.11;65.32;96919.42;218201;1280;22701;-69
2022/04/07 06:03:25;;;;;;;4.60;3.30;;;;;;;11.06;65.11;96921.19;217984;1280;24146;-69
2022/04/07 06:08:30;;;;;;;4.60;2.90;;;;;;;11.05;65.02;96918.09;218440;1280;24110;-70
2022/04/07 06:13:34;;;;;;;4.10;2.50;;;;;;;11.08;65.17;96920.94;218121;1281;22685;-69
2022/04/07 06:18:40;;;;;;;4.10;2.80;;;;;;;11.11;64.51;96921.33;218202;1281;22659;-70
2022/04/07 06:23:42;;;;;;;2.70;2.10;;;;;;;11.11;64.50;96922.40;218135;1280;24561;-69
2022/04/07 06:28:45;;;;;;;5.20;2.80;;;;;;;11.10;64.34;96923.52;218290;1281;26484;-70
2022/04/07 06:33:47;;;;;;;3.40;2.00;;;;;;;11.08;64.14;96920.22;218262;1280;22777;-70
2022/04/07 06:39:11;;;;;;;3.30;1.90;;;;;;;11.08;63.99;96913.88;218162;1281;24192;-67
2022/04/07 06:44:13;;;;;;;5.00;3.30;;;;;;;11.17;64.30;96916.52;217895;1280;25674;-70
2022/04/07 06:49:16;;;;;;;2.00;1.60;;;;;;;11.31;64.31;96914.87;217996;1278;26509;-70
2022/04/07 06:54:18;;;;;;;3.10;2.30;;;;;;;11.49;63.76;96917.91;217813;1281;23215;-70
2022/04/07 06:59:20;;;;;;;3.00;1.90;;;;;;;11.66;63.33;96916.84;219560;1281;22591;-70
2022/04/07 07:04:23;;;;;;;3.30;1.40;;;;;;;11.80;62.82;96910.73;219643;1280;22548;-71
2022/04/07 07:09:25;;;;;;;2.50;1.50;;;;;;;11.96;62.96;96914.30;219350;1280;22647;-71
2022/04/07 07:14:28;;;;;;;2.10;1.00;;;;;;;12.10;62.60;96918.60;219490;1280;24288;-71
2022/04/07 07:19:30;;;;;;;1.50;1.10;;;;;;;12.22;62.01;96913.00;219069;1281;22642;-70
2022/04/07 07:24:32;;;;;;;2.30;1.40;;;;;;;12.31;61.42;96905.65;219453;1280;274076;-71
2022/04/07 07:29:34;;;;;;;1.50;1.00;;;;;;;12.45;60.79;96907.61;219781;1278;22820;-71
2022/04/07 07:34:36;;;;;;;1.30;1.00;;;;;;;12.64;60.68;96904.52;219589;1278;22538;-70
2022/04/07 07:39:42;;;;;;;2.60;1.40;;;;;;;12.86;59.88;96902.42;219333;1279;22580;-70
2022/04/07 07:44:44;;;;;;;1.50;1.20;;;;;;;13.09;60.20;96903.63;219476;1281;22525;-71
2022/04/07 07:49:46;;;;;;;1.10;1.00;;;;;;;13.33;59.01;96904.45;219868;1278;22582;-70
2022/04/07 07:54:49;;;;;;;2.30;0.90;;;;;;;13.46;56.52;96904.67;219727;1278;22715;-70
2022/04/07 07:59:51;;;;;;;2.20;1.10;;;;;;;13.51;56.21;96901.63;219423;1279;25323;-70
2022/04/07 08:04:54;;;;;;;2.10;1.10;;;;;;;13.61;55.53;96894.13;219602;1278;22888;-70
2022/04/07 08:09:57;;;;;;;2.10;1.30;;;;;;;13.80;56.27;96896.41;219684;1281;25277;-71
2022/04/07 08:14:59;;;;;;;2.00;1.20;;;;;;;14.10;56.87;96894.90;219580;1277;22677;-71
2022/04/07 08:20:10;;;;;;;1.80;1.20;;;;;;;14.37;55.41;96888.98;219897;1278;22564;-70
2022/04/07 08:25:14;;;;;;;2.10;1.50;;;;;;;14.41;53.88;96884.36;217813;1278;22628;-69
2022/04/07 08:30:22;;;;;;;1.40;1.30;;;;;;;14.44;54.01;96882.40;218014;1278;25145;-70
2022/04/07 08:35:26;;;;;;;1.50;1.00;;;;;;;14.42;54.81;96882.83;217803;1281;23025;-70
2022/04/07 08:40:31;;;;;;;1.80;1.00;;;;;;;14.42;53.14;96882.30;219645;1278;23704;-71
2022/04/07 08:45:35;;;;;;;1.20;1.00;;;;;;;14.39;52.72;96873.48;218147;1280;22537;-70
2022/04/07 08:50:41;;;;;;;2.20;1.20;;;;;;;14.45;53.47;96867.27;217821;1281;22851;-69
2022/04/07 08:55:49;;;;;;;1.50;1.10;;;;;;;14.74;53.53;96864.50;218353;1278;25936;-69
2022/04/07 09:00:52;;;;;;;1.00;0.90;;;;;;;14.88;53.16;96863.32;218045;1279;22626;-69
2022/04/07 09:05:58;;;;;;;1.20;1.00;;;;;;;15.02;53.39;96854.20;218063;1279;25535;-69
2022/04/07 09:11:03;;;;;;;2.50;0.90;;;;;;;15.21;52.63;96848.52;218177;1280;25449;-70
2022/04/07 09:16:11;;;;;;;1.30;0.90;;;;;;;15.18;52.19;96840.70;219472;1278;22568;-68
2022/04/07 09:21:24;;;;;;;1.80;1.30;;;;;;;15.11;52.17;96841.23;218233;1279;25325;-69
2022/04/07 09:26:29;;;;;;;1.70;1.30;;;;;;;15.07;52.63;96830.38;218320;1279;22594;-69
2022/04/07 09:31:36;;;;;;;1.10;1.00;;;;;;;15.18;52.64;96817.65;217767;1278;26502;-68
2022/04/07 09:36:39;;;;;;;1.80;1.40;;;;;;;15.36;52.15;96809.63;217993;1279;25437;-70
2022/04/07 09:41:46;;;;;;;2.40;1.70;;;;;;;15.48;51.97;96805.52;218257;1278;22549;-72
2022/04/07 09:46:48;;;;;;;3.10;2.10;;;;;;;15.53;51.46;96804.27;219948;1278;23351;-71
2022/04/07 09:51:51;;;;;;;2.10;1.90;;;;;;;15.44;51.54;96798.77;219633;1278;22718;-73
2022/04/07 09:56:55;;;;;;;2.00;1.60;;;;;;;15.55;51.89;96790.80;219716;1278;22599;-72
2022/04/07 10:01:58;;;;;;;1.80;1.70;;;;;;;15.64;52.05;96778.25;219942;1279;25373;-73
2022/04/07 10:07:08;;;;;;;1.80;1.60;;;;;;;15.90;51.77;96772.02;219763;1280;24258;-73
2022/04/07 10:12:12;;;;;;;3.20;1.60;;;;;;;15.92;50.15;96765.66;220161;1280;25372;-73
2022/04/07 10:17:17;;;;;;;1.60;1.50;;;;;;;15.64;50.25;96764.52;219746;1277;22631;-73
2022/04/07 10:22:30;;;;;;;1.70;1.40;;;;;;;15.47;50.18;96758.09;219546;1279;22571;-73
2022/04/07 10:27:52;;;;;;;2.10;1.60;;;;;;;15.41;50.96;96755.96;219482;1278;24776;-73
2022/04/07 10:32:58;;;;;;;2.80;1.70;;;;;;;15.42;50.12;96753.20;219777;1278;25368;-72
2022/04/07 10:38:09;;;;;;;3.20;1.90;;;;;;;15.51;50.72;96737.95;219655;1278;22693;-70
2022/04/07 10:43:25;;;;;;;2.60;2.30;;;;;;;15.71;50.36;96731.04;219840;1279;25397;-72
2022/04/07 10:48:59;;;;;;;1.90;1.60;;;;;;;16.02;50.51;96722.45;220192;1278;26543;-73
2022/04/07 10:54:02;;;;;;;2.20;1.30;;;;;;;16.59;50.70;96714.64;219671;1278;22679;-72
2022/04/07 10:59:21;;;;;;;1.90;1.70;;;;;;;16.87;48.90;96704.11;219749;1278;27698;-73
2022/04/07 11:04:27;;;;;;;2.70;1.40;;;;;;;16.91;48.20;96697.35;220073;1278;22549;-73
2022/04/07 11:09:49;;;;;;;2.70;1.70;;;;;;;16.95;48.52;96684.09;219995;1278;25337;-72
2022/04/07 11:14:56;;;;;;;2.20;2.00;;;;;;;17.31;48.98;96675.74;219759;1277;22720;-72
2022/04/07 11:20:19;;;;;;;4.30;2.90;;;;;;;17.64;47.97;96671.38;219547;1279;23318;-71
2022/04/07 11:25:31;;;;;;;3.10;2.80;;;;;;;17.59;46.43;96666.03;219539;1277;22672;-71
2022/04/07 11:30:49;;;;;;;3.50;3.20;;;;;;;17.58;46.78;96653.97;219939;1278;25579;-71
2022/04/07 11:35:59;;;;;;;3.40;2.40;;;;;;;17.62;47.00;96651.19;219840;1279;22779;-71
2022/04/07 11:41:05;;;;;;;2.20;1.80;;;;;;;17.60;47.45;96644.77;219487;1279;22558;-72
2022/04/07 11:46:14;;;;;;;2.90;2.60;;;;;;;17.81;47.55;96643.30;219768;1278;22587;-71
2022/04/07 11:51:35;;;;;;;3.50;2.00;;;;;;;17.91;47.14;96629.22;219577;1278;24717;-71
2022/04/07 11:56:41;;;;;;;2.20;1.90;;;;;;;18.05;47.00;96608.00;219358;1279;24255;-73
2022/04/07 12:01:45;;;;;;;2.70;2.00;;;;;;;18.09;45.72;96601.03;219680;1278;23250;-70
2022/04/07 12:06:48;;;;;;;3.60;2.40;;;;;;;18.10;46.39;96582.69;219482;1277;24437;-71
2022/04/07 12:11:53;;;;;;;3.50;2.40;;;;;;;18.19;45.87;96577.93;219664;1278;24375;-71
2022/04/07 12:17:01;;;;;;;2.30;2.10;;;;;;;18.17;45.37;96562.92;219807;1278;23346;-71
2022/04/07 12:22:09;;;;;;;2.30;1.60;;;;;;;18.17;45.55;96557.52;219865;1278;26397;-71
2022/04/07 12:27:34;;;;;;;3.20;2.80;;;;;;;18.20;45.92;96542.77;218253;1277;25355;-71
2022/04/07 12:32:41;;;;;;;3.00;2.40;;;;;;;18.08;45.01;96538.48;219572;1279;24348;-72
2022/04/07 12:37:46;;;;;;;3.50;2.50;;;;;;;17.77;44.57;96538.16;219603;1278;24291;-72
2022/04/07 12:43:01;;;;;;;6.30;3.40;;;;;;;17.53;45.67;96521.17;219459;1278;22575;-72
2022/04/07 12:48:08;;;;;;;3.50;2.80;;;;;;;17.71;45.18;96524.94;219447;1279;22706;-72
2022/04/07 12:53:35;;;;;;;3.50;2.30;;;;;;;17.96;44.99;96509.50;219713;1277;22719;-72
2022/04/07 12:58:38;;;;;;;2.80;2.50;;;;;;;18.28;44.92;96484.91;219453;1278;23516;-72
2022/04/07 13:03:54;;;;;;;2.60;2.20;;;;;;;18.54;44.69;96475.95;219592;1278;26516;-72
2022/04/07 13:08:56;;;;;;;2.40;2.00;;;;;;;18.58;44.06;96461.20;219419;1279;22557;-73
2022/04/07 13:14:00;;;;;;;2.90;1.60;;;;;;;18.37;42.05;96459.79;219617;1279;22692;-72
2022/04/07 13:19:04;;;;;;;4.80;4.20;;;;;;;18.03;42.80;96451.67;219419;1278;22530;-72
2022/04/07 13:24:06;;;;;;;3.50;2.30;;;;;;;17.85;44.07;96441.89;219602;1278;22714;-72
2022/04/07 13:29:08;;;;;;;2.00;1.60;;;;;;;17.74;44.87;96423.91;219866;1278;22567;-71
2022/04/07 13:34:10;;;;;;;2.70;1.80;;;;;;;17.74;45.62;96417.25;219600;1278;22593;-71
2022/04/07 13:39:15;;;;;;;2.20;1.80;;;;;;;17.87;45.89;96406.54;219631;1278;22587;-73
2022/04/07 13:44:18;;;;;;;1.90;1.50;;;;;;;17.95;44.48;96397.54;219332;1279;22610;-72
2022/04/07 13:49:21;;;;;;;1.70;1.50;;;;;;;17.76;43.72;96386.08;219695;1278;22574;-73
2022/04/07 13:54:24;;;;;;;1.90;1.30;;;;;;;17.56;44.16;96376.10;219791;1277;22637;-71
2022/04/07 13:59:26;;;;;;;1.90;1.30;;;;;;;17.56;43.72;96361.64;219635;1278;22935;-72
2022/04/07 14:04:28;;;;;;;2.50;1.40;;;;;;;17.69;43.07;96344.86;219148;1278;24323;-72
2022/04/07 14:09:31;;;;;;;3.80;1.70;;;;;;;17.90;43.10;96351.50;219682;1277;24714;-72
2022/04/07 14:14:36;;;;;;;2.10;1.10;;;;;;;17.99;42.59;96341.41;219915;1277;25283;-72
2022/04/07 14:19:41;;;;;;;1.10;1.00;;;;;;;17.99;42.48;96327.70;219589;1277;22624;-73
2022/04/07 14:24:46;;;;;;;1.50;1.10;;;;;;;17.91;42.10;96322.56;219827;1278;22574;-72
2022/04/07 14:29:51;;;;;;;1.80;1.10;;;;;;;17.92;42.51;96315.52;219401;1279;24327;-73
2022/04/07 14:34:56;;;;;;;1.60;1.10;;;;;;;17.99;43.00;96313.01;219498;1278;22607;-71
2022/04/07 14:39:59;;;;;;;1.90;1.50;;;;;;;18.01;42.93;96309.45;219123;1278;22770;-74
2022/04/07 14:45:16;;;;;;;1.70;1.20;;;;;;;17.91;42.62;96319.23;219296;1278;24278;-73
2022/04/07 14:50:25;;;;;;;5.20;1.90;;;;;;;17.91;43.41;96310.72;219535;1277;25521;-73
2022/04/07 14:55:31;;;;;;;2.50;1.60;;;;;;;17.87;41.93;96312.43;219742;1278;22769;-73
2022/04/07 15:00:40;;;;;;;1.80;0.90;;;;;;;17.65;41.96;96310.85;219493;1278;25449;-73
2022/04/07 15:05:50;;;;;;;1.20;1.00;;;;;;;17.43;42.44;96295.19;219591;1277;22595;-72
2022/04/07 15:11:08;;;;;;;1.80;1.50;;;;;;;17.18;42.12;96282.31;219442;1279;22582;-72
2022/04/07 15:16:14;;;;;;;1.20;0.90;;;;;;;16.99;42.97;96284.23;219446;1279;25511;-72
2022/04/07 15:21:20;;;;;;;1.30;1.20;;;;;;;16.89;43.40;96277.52;219763;1277;22998;-72
2022/04/07 15:26:24;;;;;;;2.30;1.30;;;;;;;16.73;43.46;96270.37;219331;1277;24261;-72
2022/04/07 15:31:27;;;;;;;1.10;1.00;;;;;;;16.54;43.69;96266.62;219567;1278;25310;-73
2022/04/07 15:36:33;;;;;;;1.90;1.10;;;;;;;16.42;44.20;96263.31;219843;1277;22663;-73
2022/04/07 15:41:36;;;;;;;1.30;0.90;;;;;;;16.36;43.67;96252.98;219449;1277;22580;-72
2022/04/07 15:46:42;;;;;;;0.90;0.80;;;;;;;16.28;43.45;96240.41;219566;1277;22578;-71
2022/04/07 15:51:51;;;;;;;1.20;1.00;;;;;;;16.18;43.77;96238.41;219430;1279;25382;-72
2022/04/07 15:56:55;;;;;;;1.50;1.20;;;;;;;16.11;43.51;96226.45;219554;1278;22556;-72
2022/04/07 16:01:58;;;;;;;1.40;1.30;;;;;;;15.99;43.30;96211.65;219478;1279;24123;-72
2022/04/07 16:07:01;;;;;;;1.60;1.20;;;;;;;15.89;43.66;96200.08;219442;1279;22577;-72
2022/04/07 16:12:08;;;;;;;1.90;1.20;;;;;;;15.77;43.58;96188.42;219563;1279;22586;-73
2022/04/07 16:17:10;;;;;;;2.10;1.40;;;;;;;15.67;43.48;96180.08;219650;1279;23134;-73
2022/04/07 16:22:14;;;;;;;4.00;2.20;;;;;;;15.62;43.70;96172.91;219646;1279;22609;-71
2022/04/07 16:27:17;;;;;;;5.10;3.60;;;;;;;15.63;43.94;96168.67;219374;1278;24327;-71
2022/04/07 16:32:20;;;;;;;1.80;1.00;;;;;;;15.64;43.77;96170.98;219643;1278;22617;-72
2022/04/07 16:37:23;;;;;;;2.60;1.70;;;;;;;15.61;43.48;96168.12;219619;1278;24146;-72
2022/04/07 16:42:25;;;;;;;3.00;2.00;;;;;;;15.52;44.06;96179.52;219456;1279;22590;-72
2022/04/07 16:47:28;;;;;;;1.50;1.20;;;;;;;15.42;43.64;96185.67;219483;1278;22575;-71
2022/04/07 16:52:32;;;;;;;2.80;1.70;;;;;;;15.37;43.91;96179.35;219538;1278;22584;-73
2022/04/07 16:57:43;;;;;;;4.60;3.20;;;;;;;15.34;43.42;96181.58;219152;1278;22551;-73
2022/04/07 17:02:45;;;;;;;5.30;2.00;;;;;;;15.27;43.42;96176.33;219580;1279;22583;-72
2022/04/07 17:07:55;;;;;;;2.30;1.20;;;;;;;15.15;43.48;96178.14;219506;1277;23472;-70
2022/04/07 17:12:59;;;;;;;2.30;1.70;;;;;;;14.98;43.98;96180.34;219644;1278;22574;-72
2022/04/07 17:18:04;;;;;;;2.90;1.60;;;;;;;14.85;44.09;96179.45;219743;1279;25643;-73
2022/04/07 17:23:09;;;;;;;2.40;1.70;;;;;;;14.81;44.21;96183.96;219591;1278;22920;-73
2022/04/07 17:28:13;;;;;;;2.60;1.30;;;;;;;14.76;44.13;96166.33;219610;1279;25378;-73
2022/04/07 17:33:18;;;;;;;2.10;1.30;;;;;;;14.75;44.41;96172.33;219509;1278;23303;-72
2022/04/07 17:38:20;;;;;;;3.00;1.70;;;;;;;14.71;44.58;96180.00;219724;1277;24583;-73
2022/04/07 17:43:22;;;;;;;1.90;1.30;;;;;;;14.66;44.74;96177.91;219612;1278;22599;-73
2022/04/07 17:48:25;;;;;;;3.10;1.40;;;;;;;14.63;44.53;96183.81;219454;1279;22568;-73
2022/04/07 17:53:30;;;;;;;2.90;2.30;;;;;;;14.63;44.45;96174.96;219520;1279;22579;-73
2022/04/07 17:58:33;;;;;;;2.30;1.70;;;;;;;14.62;44.36;96167.48;219758;1279;22618;-72
2022/04/07 18:03:36;;;;;;;3.20;2.00;;;;;;;14.63;44.24;96179.58;219452;1278;22599;-73
2022/04/07 18:08:41;;;;;;;3.70;1.90;;;;;;;14.63;44.44;96168.88;219459;1279;22614;-71
2022/04/07 18:13:45;;;;;;;2.50;1.70;;;;;;;14.64;44.56;96166.97;219240;1279;22583;-72
2022/04/07 18:18:47;;;;;;;4.30;1.70;;;;;;;14.63;44.83;96162.55;218962;1279;22717;-72
2022/04/07 18:23:50;;;;;;;3.10;1.70;;;;;;;14.60;44.94;96154.68;219068;1279;22541;-72
2022/04/07 18:28:52;;;;;;;2.70;1.40;;;;;;;14.57;44.93;96146.20;219141;1279;22552;-73
2022/04/07 18:33:55;;;;;;;1.60;1.00;;;;;;;14.54;44.95;96132.73;219164;1279;22551;-73
2022/04/07 18:39:00;;;;;;;2.20;1.50;;;;;;;14.51;45.11;96131.48;219101;1279;22932;-73
2022/04/07 18:44:06;;;;;;;3.10;1.50;;;;;;;14.46;45.19;96124.21;219246;1277;24366;-72
2022/04/07 18:49:14;;;;;;;2.40;1.70;;;;;;;14.38;45.49;96116.41;219281;1279;22564;-74
2022/04/07 18:54:17;;;;;;;2.10;1.30;;;;;;;14.32;45.49;96100.61;219233;1279;22641;-72
2022/04/07 18:59:19;;;;;;;3.60;2.40;;;;;;;14.25;45.79;96096.89;219163;1279;22557;-72
2022/04/07 19:04:21;;;;;;;4.30;2.30;;;;;;;14.19;45.81;96095.33;219233;1278;25308;-73
2022/04/07 19:09:23;;;;;;;4.20;1.70;;;;;;;14.15;45.85;96085.23;219264;1279;25376;-71
2022/04/07 19:14:26;;;;;;;4.90;1.70;;;;;;;14.13;46.00;96073.91;219201;1279;22597;-76
2022/04/07 19:19:30;;;;;;;3.40;1.70;;;;;;;14.15;45.96;96053.84;219494;1279;22814;-72
2022/04/07 19:24:38;;;;;;;3.10;1.40;;;;;;;14.14;45.98;96047.38;219146;1279;370687;-74
2022/04/07 19:29:40;;;;;;;2.60;1.10;;;;;;;14.13;46.18;96044.61;219057;1279;22541;-73
2022/04/07 19:34:43;;;;;;;3.40;1.30;;;;;;;14.23;45.79;96046.34;219082;1279;22560;-75
2022/04/07 19:39:51;;;;;;;5.40;2.00;;;;;;;14.29;45.89;96042.13;219075;1279;22649;-72
2022/04/07 19:44:56;;;;;;;4.10;1.50;;;;;;;14.37;45.76;96038.24;218729;1281;22532;-71
2022/04/07 19:49:59;;;;;;;1.90;0.90;;;;;;;14.40;45.92;96040.09;219223;1279;22547;-71
2022/04/07 19:55:17;;;;;;;3.40;1.20;;;;;;;14.41;46.09;96042.56;219074;1279;22557;-73
2022/04/07 20:00:27;;;;;;;2.90;0.90;;;;;;;14.40;46.45;96046.26;219263;1279;25246;-71
2022/04/07 20:05:34;;;;;;;4.20;1.00;;;;;;;14.37;46.53;96051.78;218559;1281;22632;-73
2022/04/07 20:10:38;;;;;;;3.70;1.20;;;;;;;14.38;46.65;96070.17;219076;1279;24411;-72
2022/04/07 20:15:44;;;;;;;2.60;1.10;;;;;;;14.39;46.71;96093.71;218738;1281;22547;-72
2022/04/07 20:20:47;;;;;;;2.60;1.30;;;;;;;14.38;47.06;96088.70;218637;1280;24257;-73
2022/04/07 20:25:49;;;;;;;1.30;0.90;;;;;;;14.34;47.24;96080.45;218759;1281;23475;-73
2022/04/07 20:30:52;;;;;;;4.50;2.10;;;;;;;14.28;47.55;96057.36;218960;1279;22756;-72
2022/04/07 20:35:54;;;;;;;2.00;1.40;;;;;;;14.22;47.79;96043.33;219088;1279;22543;-72
2022/04/07 20:40:57;;;;;;;2.00;1.00;;;;;;;14.15;48.09;96031.31;218923;1279;25379;-72
2022/04/07 20:46:05;;;;;;;3.10;0.90;;;;;;;14.08;48.41;96056.80;219489;1279;22590;-74
2022/04/07 20:51:10;;;;;;;1.40;1.00;;;;;;;14.00;48.86;96100.29;219293;1279;22720;-72
2022/04/07 20:56:13;;;;;;;2.20;1.20;;;;;;;13.94;49.04;96092.80;219294;1278;22616;-72
2022/04/07 21:01:18;;;;;;;2.60;1.40;;;;;;;13.89;49.31;96088.93;219214;1279;23035;-73
2022/04/07 21:06:26;;;;;;;1.90;0.90;;;;;;;13.83;49.53;96083.29;218947;1279;22615;-72
2022/04/07 21:11:29;;;;;;;1.90;1.30;;;;;;;13.77;49.79;96085.85;219114;1279;22673;-71
2022/04/07 21:16:32;;;;;;;1.40;0.90;;;;;;;13.74;50.03;96107.98;219205;1279;26370;-72
2022/04/07 21:21:35;;;;;;;1.80;1.10;;;;;;;13.70;50.42;96100.64;219312;1279;22615;-72
2022/04/07 21:26:37;;;;;;;0.80;0.50;;;;;;;13.66;50.73;96110.61;219330;1279;25384;-71
2022/04/07 21:31:39;;;;;;;1.70;0.80;;;;;;;13.63;51.10;96109.89;219318;1279;22547;-72
2022/04/07 21:36:42;;;;;;;2.40;0.80;;;;;;;13.57;51.50;96114.23;219312;1279;22620;-72
2022/04/07 21:41:48;;;;;;;2.70;0.80;;;;;;;13.49;51.84;96093.66;219115;1279;22545;-71
2022/04/07 21:46:51;;;;;;;0.80;0.60;;;;;;;13.41;52.25;96082.45;219174;1279;22730;-72
2022/04/07 21:51:59;;;;;;;2.30;1.10;;;;;;;13.34;52.92;96088.30;218925;1279;23077;-73
2022/04/07 21:57:01;;;;;;;1.90;1.50;;;;;;;13.31;53.31;96108.61;219167;1279;22560;-72
2022/04/07 22:02:07;;;;;;;0.70;0.40;;;;;;;13.29;53.61;96154.06;218835;1279;25261;-72
2022/04/07 22:07:09;;;;;;;1.30;0.50;;;;;;;12.91;55.87;96216.09;218792;1281;22547;-72
2022/04/07 22:12:15;;;;;;;1.30;0.50;;;;;;;11.96;58.67;96223.98;219124;1279;25374;-71
2022/04/07 22:17:31;;;;;;;;;;;;;;;;;;;;;
2022/04/07 22:22:35;;;;;;;0.70;0.50;;;;;;;10.66;62.32;96235.16;219143;1279;22540;-72
2022/04/07 22:27:46;;;;;;;2.20;0.80;;;;;;;10.29;62.70;96244.77;218770;1281;24260;-72
2022/04/07 22:32:49;;;;;;;0.70;0.70;;;;;;;10.10;63.15;96248.76;219283;1279;26512;-71
2022/04/07 22:37:53;;;;;;;0.30;0.30;;;;;;;9.97;63.41;96258.01;218747;1281;22595;-72
2022/04/07 22:42:56;;;;;;;0.30;0.20;;;;;;;9.88;63.60;96266.66;219058;1278;25326;-72
2022/04/07 22:47:58;;;;;;;0.50;0.30;;;;;;;9.82;63.58;96261.17;218842;1278;22578;-72
2022/04/07 22:53:00;;;;;;;0.50;0.20;;;;;;;9.77;63.65;96260.35;219055;1279;22687;-72
2022/04/07 22:58:02;;;;;;;1.00;0.40;;;;;;;9.72;63.84;96276.03;219156;1280;25529;-71
2022/04/07 23:03:05;;;;;;;0.70;0.30;;;;;;;9.66;64.23;96264.42;218886;1280;22726;-72
2022/04/07 23:08:07;;;;;;;0.80;0.30;;;;;;;9.60;64.66;96262.30;219069;1279;22580;-72
2022/04/07 23:13:10;;;;;;;1.80;0.40;;;;;;;9.50;65.73;96275.00;218696;1281;23097;-72
2022/04/07 23:18:12;;;;;;;0.50;0.30;;;;;;;9.29;66.63;96256.01;219474;1279;22583;-73
2022/04/07 23:23:17;;;;;;;0.70;0.40;;;;;;;9.08;67.59;96259.23;219207;1279;24274;-72
2022/04/07 23:28:20;;;;;;;0.10;0.10;;;;;;;8.93;68.21;96266.91;218947;1279;22549;-73
2022/04/07 23:33:25;;;;;;;0.60;0.10;;;;;;;8.78;68.98;96268.80;218813;1279;25321;-72
2022/04/07 23:38:27;;;;;;;0.30;0.10;;;;;;;8.63;69.58;96268.27;218795;1281;24292;-73
2022/04/07 23:43:38;;;;;;;0.70;0.20;;;;;;;8.49;70.58;96278.46;218622;1281;22623;-71